Calm Bay — 2HFU7 — position and weather

sailwx.info

Track history (hours):
 
Tides and Currents Weather Stations Pressure Air Temp Water Temp Dewpoint Dewpoint Depression Visibility Wind Speed Wind Dir Waves Ship Positions

Calm Bay

Last reported at 2018-Jun-24 01:40 UTC. Time now 2018-Jun-25 19:41 UTC.
Position N 36°24' E 014°10'.

Length 177 m; draft 9.3 m.

Type: Cargo ship. MMSI: 235103314.

Date/timePositionNaut miles runAvg speedWind from/ knotsBaromVisibWave heightAir tempDewpointWater temp
2018-Jun-24 01:40N 36°24' E 014°10'313.8
2018-Jun-24 01:27N 36°26' E 014°07'613.7
2018-Jun-24 00:59N 36°28' E 013°59'46913.0
2018-Jun-22 12:51N 37°20' E 004°16'412.8
2018-Jun-22 12:30N 37°20' E 004°10'612.6
2018-Jun-22 12:00N 37°19' E 004°02'612.5
2018-Jun-22 11:30N 37°18' E 003°55'612.1
2018-Jun-22 11:00N 37°18' E 003°47'611.6
2018-Jun-22 10:30N 37°17' E 003°40'611.5
2018-Jun-22 10:00N 37°17' E 003°32'811.4
2018-Jun-22 09:19N 37°16' E 003°23'411.4
2018-Jun-22 09:00N 37°16' E 003°18'611.5
2018-Jun-22 08:28N 37°15' E 003°11'611.8
2018-Jun-22 08:00N 37°15' E 003°04'712.0
2018-Jun-22 07:23N 37°14' E 002°54'412.1
2018-Jun-22 07:00N 37°14' E 002°49'612.5
2018-Jun-22 06:30N 37°13' E 002°41'612.7
2018-Jun-22 06:00N 37°12' E 002°33'1613.5
2018-Jun-22 04:48N 37°10' E 002°13'413.8
2018-Jun-22 04:30N 37°10' E 002°08'713.7
2018-Jun-22 03:59N 37°08' E 001°59'713.6
2018-Jun-22 03:28N 37°06' E 001°50'713.2
2018-Jun-22 02:56N 37°05' E 001°42'512.9
2018-Jun-22 02:30N 37°03' E 001°35'712.9
2018-Jun-22 02:00N 37°02' E 001°27'612.6
2018-Jun-22 01:30N 37°01' E 001°19'612.8
2018-Jun-22 01:00N 36°59' E 001°12'712.8
2018-Jun-22 00:29N 36°58' E 001°03'612.7
2018-Jun-22 00:00N 36°56' E 000°56'612.8
2018-Jun-21 23:30N 36°55' E 000°48'713.2
2018-Jun-21 23:00N 36°54' E 000°40'713.3
2018-Jun-21 22:30N 36°52' E 000°32'713.1
2018-Jun-21 21:58N 36°51' E 000°23'612.6
2018-Jun-21 21:30N 36°49' E 000°16'612.6
2018-Jun-21 21:00N 36°48' E 000°09'612.1
2018-Jun-21 20:30N 36°46' E 000°01'612.0
2018-Jun-21 20:00N 36°45' W 000°06'612.1
2018-Jun-21 19:30N 36°44' W 000°13'612.5
2018-Jun-21 19:00N 36°42' W 000°21'612.5
2018-Jun-21 18:30N 36°41' W 000°28'612.6
2018-Jun-21 18:00N 36°41' W 000°36'612.5
2018-Jun-21 17:29N 36°40' W 000°44'1112.5
2018-Jun-21 16:36N 36°36' W 000°57'212.6
2018-Jun-21 16:28N 36°36' W 000°59'1912.6
2018-Jun-21 14:57N 36°31' W 001°22'35012.9
2018-Jun-20 11:46N 36°25' W 008°38'413.2
2018-Jun-20 11:28N 36°26' W 008°43'1013.2
2018-Jun-20 10:43N 36°28' W 008°54'313.3
2018-Jun-20 10:30N 36°29' W 008°58'713.3
2018-Jun-20 09:58N 36°31' W 009°06'613.3
2018-Jun-20 09:29N 36°33' W 009°14'612.1
2018-Jun-20 08:57N 36°37' W 009°20'712.5
2018-Jun-20 08:24N 36°42' W 009°26'512.8
2018-Jun-20 08:00N 36°46' W 009°30'612.7
2018-Jun-20 07:30N 36°51' W 009°34'3513.0
2018-Jun-20 04:47N 37°25' W 009°45'413.1
2018-Jun-20 04:30N 37°29' W 009°47'712.9
2018-Jun-20 03:59N 37°35' W 009°48'612.9
2018-Jun-20 03:31N 37°41' W 009°50'612.9
2018-Jun-20 03:00N 37°48' W 009°52'613.0
2018-Jun-20 02:31N 37°54' W 009°54'612.9
2018-Jun-20 02:01N 38°00' W 009°54'713.2
2018-Jun-20 01:30N 38°07' W 009°56'613.2
2018-Jun-20 01:01N 38°13' W 009°58'713.1
2018-Jun-20 00:30N 38°20' W 009°60'713.3
2018-Jun-20 00:01N 38°26' W 010°02'713.4
2018-Jun-19 23:30N 38°33' W 010°04'713.2
2018-Jun-19 23:01N 38°39' W 010°06'613.0
2018-Jun-19 22:30N 38°46' W 010°06'713.4
2018-Jun-19 22:00N 38°52' W 010°07'713.3
2018-Jun-19 21:30N 38°59' W 010°06'613.0
2018-Jun-19 21:00N 39°05' W 010°06'713.0
2018-Jun-19 20:30N 39°12' W 010°07'713.2
2018-Jun-19 19:59N 39°19' W 010°07'4412.9
2018-Jun-19 16:35N 40°03' W 010°04'213.2
2018-Jun-19 16:26N 40°05' W 010°05'49612.3
2018-Jun-18 00:14N 47°57' W 006°33'713.0
2018-Jun-17 23:43N 48°03' W 006°28'1913.3
2018-Jun-17 22:18N 48°19' W 006°15'1612.8
2018-Jun-17 21:01N 48°34' W 006°03'312.5
2018-Jun-17 20:48N 48°36' W 006°01'512.2
2018-Jun-17 20:21N 48°41' W 005°58'411.7
2018-Jun-17 19:59N 48°45' W 005°55'611.5
2018-Jun-17 19:28N 48°50' W 005°50'510.5
2018-Jun-17 18:59N 48°54' W 005°46'710.3
2018-Jun-17 18:17N 48°58' W 005°37'3 9.8
2018-Jun-17 17:57N 48°60' W 005°33'5 9.4
2018-Jun-17 17:28N 49°02' W 005°27'6 9.8
2018-Jun-17 16:53N 49°05' W 005°19'510.0
2018-Jun-17 16:22N 49°08' W 005°12'1510.0
2018-Jun-17 14:49N 49°16' W 004°52'6510.5
2018-Jun-17 08:38N 49°49' W 003°26'3 9.5
2018-Jun-17 08:22N 49°50' W 003°23'410.0
2018-Jun-17 08:00N 49°52' W 003°18'510.4
2018-Jun-17 07:30N 49°54' W 003°11'510.9
2018-Jun-17 07:00N 49°57' W 003°03'611.7
2018-Jun-17 06:30N 49°59' W 002°54'612.7
2018-Jun-17 06:00N 50°00' W 002°45'713.7
2018-Jun-17 05:30N 50°02' W 002°35'1315.0
2018-Jun-17 04:39N 50°06' W 002°16'215.6
2018-Jun-17 04:30N 50°07' W 002°12'1115.9
2018-Jun-17 03:48N 50°10' W 001°56'615.8
2018-Jun-17 03:25N 50°12' W 001°47'1115.2
2018-Jun-17 02:43N 50°15' W 001°31'414.3
2018-Jun-17 02:26N 50°16' W 001°25'613.9
2018-Jun-17 01:59N 50°18' W 001°15'1112.1
2018-Jun-17 01:04N 50°21' W 000°59'211.0
2018-Jun-17 00:54N 50°21' W 000°56'7 9.9
2018-Jun-17 00:10N 50°23' W 000°45'3 9.1
2018-Jun-16 23:50N 50°24' W 000°40'3 8.8
2018-Jun-16 23:30N 50°25' W 000°36'5 8.8
2018-Jun-16 22:58N 50°26' W 000°29'5 8.9
2018-Jun-16 22:26N 50°28' W 000°22'5 9.0
2018-Jun-16 21:56N 50°29' W 000°15'4 9.3
2018-Jun-16 21:30N 50°30' W 000°09'8 9.9
2018-Jun-16 20:40N 50°32' E 000°04'210.7
2018-Jun-16 20:30N 50°32' E 000°07'611.3
2018-Jun-16 20:00N 50°34' E 000°15'611.4
2018-Jun-16 19:30N 50°35' E 000°24'612.7
2018-Jun-16 19:00N 50°37' E 000°33'612.6
2018-Jun-16 18:30N 50°40' E 000°42'713.1
2018-Jun-16 18:00N 50°45' E 000°50'612.7
2018-Jun-16 17:30N 50°49' E 000°57'612.4
2018-Jun-16 17:00N 50°53' E 001°05'611.6
2018-Jun-16 16:30N 50°56' E 001°12'610.5
2018-Jun-16 15:59N 50°60' E 001°19'5 9.5
2018-Jun-16 15:30N 51°03' E 001°24'4 9.0
2018-Jun-16 15:00N 51°06' E 001°30'4 8.2
2018-Jun-16 14:30N 51°08' E 001°35'4 8.2
2018-Jun-16 14:00N 51°11' E 001°40'4 8.7
2018-Jun-16 13:30N 51°13' E 001°46'5 9.2
2018-Jun-16 13:00N 51°17' E 001°50'510.6
2018-Jun-16 12:30N 51°22' E 001°53'612.1
2018-Jun-16 12:00N 51°27' E 001°58'713.1
2018-Jun-16 11:30N 51°32' E 002°04'714.1
2018-Jun-16 11:00N 51°38' E 002°12'714.6
2018-Jun-16 10:31N 51°43' E 002°20'714.7
2018-Jun-16 10:00N 51°48' E 002°28'714.1
2018-Jun-16 09:30N 51°54' E 002°35'714.3
2018-Jun-16 08:59N 52°01' E 002°36'714.1
2018-Jun-16 08:30N 52°08' E 002°37'713.3
2018-Jun-16 07:59N 52°14' E 002°42'612.7
2018-Jun-16 07:29N 52°20' E 002°48'612.2
2018-Jun-16 07:00N 52°25' E 002°52'612.0
2018-Jun-16 06:30N 52°30' E 002°56'711.5
2018-Jun-16 05:56N 52°37' E 003°00'511.2
2018-Jun-16 05:27N 52°41' E 003°04'511.1
2018-Jun-16 05:00N 52°46' E 003°08'611.0
2018-Jun-16 04:25N 52°52' E 003°12'511.0
2018-Jun-16 03:57N 52°56' E 003°16'511.0
2018-Jun-16 03:30N 53°01' E 003°18'611.4
2018-Jun-16 02:58N 53°07' E 003°21'612.0
2018-Jun-16 02:30N 53°12' E 003°24'612.4
2018-Jun-16 01:59N 53°18' E 003°27'712.4
2018-Jun-16 01:24N 53°25' E 003°31'35910.5
2018-Jun-14 15:19N 57°49' E 010°41'310.3
2018-Jun-14 15:00N 57°48' E 010°47'611.2
2018-Jun-14 14:26N 57°44' E 010°57'512.4
2018-Jun-14 14:00N 57°40' E 011°03'612.4
2018-Jun-14 13:29N 57°36' E 011°11'612.5
2018-Jun-14 13:00N 57°32' E 011°19'612.3
2018-Jun-14 12:30N 57°27' E 011°27'612.6
2018-Jun-14 12:00N 57°21' E 011°30'712.3
2018-Jun-14 11:27N 57°14' E 011°35'  
Track history (hours):
 
Tides and Currents Weather Stations Pressure Air Temp Water Temp Dewpoint Dewpoint Depression Visibility Wind Speed Wind Dir Waves Ship Positions

Calm Bay

Last reported at 2018-Jun-24 01:40 UTC. Time now 2018-Jun-25 19:41 UTC.
Position N 36°24' E 014°10'.

Length 177 m; draft 9.3 m.

Type: Cargo ship. MMSI: 235103314.

Date/timePositionNaut miles runAvg speedWind from/ knotsBaromVisibWave heightAir tempDewpointWater temp
2018-Jun-24 01:40N 36°24' E 014°10'313.8
2018-Jun-24 01:27N 36°26' E 014°07'613.7
2018-Jun-24 00:59N 36°28' E 013°59'46913.0
2018-Jun-22 12:51N 37°20' E 004°16'412.8
2018-Jun-22 12:30N 37°20' E 004°10'612.6
2018-Jun-22 12:00N 37°19' E 004°02'612.5
2018-Jun-22 11:30N 37°18' E 003°55'612.1
2018-Jun-22 11:00N 37°18' E 003°47'611.6
2018-Jun-22 10:30N 37°17' E 003°40'611.5
2018-Jun-22 10:00N 37°17' E 003°32'811.4
2018-Jun-22 09:19N 37°16' E 003°23'411.4
2018-Jun-22 09:00N 37°16' E 003°18'611.5
2018-Jun-22 08:28N 37°15' E 003°11'611.8
2018-Jun-22 08:00N 37°15' E 003°04'712.0
2018-Jun-22 07:23N 37°14' E 002°54'412.1
2018-Jun-22 07:00N 37°14' E 002°49'612.5
2018-Jun-22 06:30N 37°13' E 002°41'612.7
2018-Jun-22 06:00N 37°12' E 002°33'1613.5
2018-Jun-22 04:48N 37°10' E 002°13'413.8
2018-Jun-22 04:30N 37°10' E 002°08'713.7
2018-Jun-22 03:59N 37°08' E 001°59'713.6
2018-Jun-22 03:28N 37°06' E 001°50'713.2
2018-Jun-22 02:56N 37°05' E 001°42'512.9
2018-Jun-22 02:30N 37°03' E 001°35'712.9
2018-Jun-22 02:00N 37°02' E 001°27'612.6
2018-Jun-22 01:30N 37°01' E 001°19'612.8
2018-Jun-22 01:00N 36°59' E 001°12'712.8
2018-Jun-22 00:29N 36°58' E 001°03'612.7
2018-Jun-22 00:00N 36°56' E 000°56'612.8
2018-Jun-21 23:30N 36°55' E 000°48'713.2
2018-Jun-21 23:00N 36°54' E 000°40'713.3
2018-Jun-21 22:30N 36°52' E 000°32'713.1
2018-Jun-21 21:58N 36°51' E 000°23'612.6
2018-Jun-21 21:30N 36°49' E 000°16'612.6
2018-Jun-21 21:00N 36°48' E 000°09'612.1
2018-Jun-21 20:30N 36°46' E 000°01'612.0
2018-Jun-21 20:00N 36°45' W 000°06'612.1
2018-Jun-21 19:30N 36°44' W 000°13'612.5
2018-Jun-21 19:00N 36°42' W 000°21'612.5
2018-Jun-21 18:30N 36°41' W 000°28'612.6
2018-Jun-21 18:00N 36°41' W 000°36'612.5
2018-Jun-21 17:29N 36°40' W 000°44'1112.5
2018-Jun-21 16:36N 36°36' W 000°57'212.6
2018-Jun-21 16:28N 36°36' W 000°59'1912.6
2018-Jun-21 14:57N 36°31' W 001°22'35012.9
2018-Jun-20 11:46N 36°25' W 008°38'413.2
2018-Jun-20 11:28N 36°26' W 008°43'1013.2
2018-Jun-20 10:43N 36°28' W 008°54'313.3
2018-Jun-20 10:30N 36°29' W 008°58'713.3
2018-Jun-20 09:58N 36°31' W 009°06'613.3
2018-Jun-20 09:29N 36°33' W 009°14'612.1
2018-Jun-20 08:57N 36°37' W 009°20'712.5
2018-Jun-20 08:24N 36°42' W 009°26'512.8
2018-Jun-20 08:00N 36°46' W 009°30'612.7
2018-Jun-20 07:30N 36°51' W 009°34'3513.0
2018-Jun-20 04:47N 37°25' W 009°45'413.1
2018-Jun-20 04:30N 37°29' W 009°47'712.9
2018-Jun-20 03:59N 37°35' W 009°48'612.9
2018-Jun-20 03:31N 37°41' W 009°50'612.9
2018-Jun-20 03:00N 37°48' W 009°52'613.0
2018-Jun-20 02:31N 37°54' W 009°54'612.9
2018-Jun-20 02:01N 38°00' W 009°54'713.2
2018-Jun-20 01:30N 38°07' W 009°56'613.2
2018-Jun-20 01:01N 38°13' W 009°58'713.1
2018-Jun-20 00:30N 38°20' W 009°60'713.3
2018-Jun-20 00:01N 38°26' W 010°02'713.4
2018-Jun-19 23:30N 38°33' W 010°04'713.2
2018-Jun-19 23:01N 38°39' W 010°06'613.0
2018-Jun-19 22:30N 38°46' W 010°06'713.4
2018-Jun-19 22:00N 38°52' W 010°07'713.3
2018-Jun-19 21:30N 38°59' W 010°06'613.0
2018-Jun-19 21:00N 39°05' W 010°06'713.0
2018-Jun-19 20:30N 39°12' W 010°07'713.2
2018-Jun-19 19:59N 39°19' W 010°07'4412.9
2018-Jun-19 16:35N 40°03' W 010°04'213.2
2018-Jun-19 16:26N 40°05' W 010°05'49612.3
2018-Jun-18 00:14N 47°57' W 006°33'713.0
2018-Jun-17 23:43N 48°03' W 006°28'1913.3
2018-Jun-17 22:18N 48°19' W 006°15'1612.8
2018-Jun-17 21:01N 48°34' W 006°03'312.5
2018-Jun-17 20:48N 48°36' W 006°01'512.2
2018-Jun-17 20:21N 48°41' W 005°58'411.7
2018-Jun-17 19:59N 48°45' W 005°55'611.5
2018-Jun-17 19:28N 48°50' W 005°50'510.5
2018-Jun-17 18:59N 48°54' W 005°46'710.3
2018-Jun-17 18:17N 48°58' W 005°37'3 9.8
2018-Jun-17 17:57N 48°60' W 005°33'5 9.4
2018-Jun-17 17:28N 49°02' W 005°27'6 9.8
2018-Jun-17 16:53N 49°05' W 005°19'510.0
2018-Jun-17 16:22N 49°08' W 005°12'1510.0
2018-Jun-17 14:49N 49°16' W 004°52'6510.5
2018-Jun-17 08:38N 49°49' W 003°26'3 9.5
2018-Jun-17 08:22N 49°50' W 003°23'410.0
2018-Jun-17 08:00N 49°52' W 003°18'510.4
2018-Jun-17 07:30N 49°54' W 003°11'510.9
2018-Jun-17 07:00N 49°57' W 003°03'611.7
2018-Jun-17 06:30N 49°59' W 002°54'612.7
2018-Jun-17 06:00N 50°00' W 002°45'713.7
2018-Jun-17 05:30N 50°02' W 002°35'1315.0
2018-Jun-17 04:39N 50°06' W 002°16'215.6
2018-Jun-17 04:30N 50°07' W 002°12'1115.9
2018-Jun-17 03:48N 50°10' W 001°56'615.8
2018-Jun-17 03:25N 50°12' W 001°47'1115.2
2018-Jun-17 02:43N 50°15' W 001°31'414.3
2018-Jun-17 02:26N 50°16' W 001°25'613.9
2018-Jun-17 01:59N 50°18' W 001°15'1112.1
2018-Jun-17 01:04N 50°21' W 000°59'211.0
2018-Jun-17 00:54N 50°21' W 000°56'7 9.9
2018-Jun-17 00:10N 50°23' W 000°45'3 9.1
2018-Jun-16 23:50N 50°24' W 000°40'3 8.8
2018-Jun-16 23:30N 50°25' W 000°36'5 8.8
2018-Jun-16 22:58N 50°26' W 000°29'5 8.9
2018-Jun-16 22:26N 50°28' W 000°22'5 9.0
2018-Jun-16 21:56N 50°29' W 000°15'4 9.3
2018-Jun-16 21:30N 50°30' W 000°09'8 9.9
2018-Jun-16 20:40N 50°32' E 000°04'210.7
2018-Jun-16 20:30N 50°32' E 000°07'611.3
2018-Jun-16 20:00N 50°34' E 000°15'611.4
2018-Jun-16 19:30N 50°35' E 000°24'612.7
2018-Jun-16 19:00N 50°37' E 000°33'612.6
2018-Jun-16 18:30N 50°40' E 000°42'713.1
2018-Jun-16 18:00N 50°45' E 000°50'612.7
2018-Jun-16 17:30N 50°49' E 000°57'612.4
2018-Jun-16 17:00N 50°53' E 001°05'611.6
2018-Jun-16 16:30N 50°56' E 001°12'610.5
2018-Jun-16 15:59N 50°60' E 001°19'5 9.5
2018-Jun-16 15:30N 51°03' E 001°24'4 9.0
2018-Jun-16 15:00N 51°06' E 001°30'4 8.2
2018-Jun-16 14:30N 51°08' E 001°35'4 8.2
2018-Jun-16 14:00N 51°11' E 001°40'4 8.7
2018-Jun-16 13:30N 51°13' E 001°46'5 9.2
2018-Jun-16 13:00N 51°17' E 001°50'510.6
2018-Jun-16 12:30N 51°22' E 001°53'612.1
2018-Jun-16 12:00N 51°27' E 001°58'713.1
2018-Jun-16 11:30N 51°32' E 002°04'714.1
2018-Jun-16 11:00N 51°38' E 002°12'714.6
2018-Jun-16 10:31N 51°43' E 002°20'714.7
2018-Jun-16 10:00N 51°48' E 002°28'714.1
2018-Jun-16 09:30N 51°54' E 002°35'714.3
2018-Jun-16 08:59N 52°01' E 002°36'714.1
2018-Jun-16 08:30N 52°08' E 002°37'713.3
2018-Jun-16 07:59N 52°14' E 002°42'612.7
2018-Jun-16 07:29N 52°20' E 002°48'612.2
2018-Jun-16 07:00N 52°25' E 002°52'612.0
2018-Jun-16 06:30N 52°30' E 002°56'711.5
2018-Jun-16 05:56N 52°37' E 003°00'511.2
2018-Jun-16 05:27N 52°41' E 003°04'511.1
2018-Jun-16 05:00N 52°46' E 003°08'611.0
2018-Jun-16 04:25N 52°52' E 003°12'511.0
2018-Jun-16 03:57N 52°56' E 003°16'511.0
2018-Jun-16 03:30N 53°01' E 003°18'611.4
2018-Jun-16 02:58N 53°07' E 003°21'612.0
2018-Jun-16 02:30N 53°12' E 003°24'612.4
2018-Jun-16 01:59N 53°18' E 003°27'712.4
2018-Jun-16 01:24N 53°25' E 003°31'35910.5
2018-Jun-14 15:19N 57°49' E 010°41'310.3
2018-Jun-14 15:00N 57°48' E 010°47'611.2
2018-Jun-14 14:26N 57°44' E 010°57'512.4
2018-Jun-14 14:00N 57°40' E 011°03'612.4
2018-Jun-14 13:29N 57°36' E 011°11'612.5
2018-Jun-14 13:00N 57°32' E 011°19'612.3
2018-Jun-14 12:30N 57°27' E 011°27'612.6
2018-Jun-14 12:00N 57°21' E 011°30'712.3
2018-Jun-14 11:27N 57°14' E 011°35'  

Dump ship's entire track history